Terminal Aerodrome Forecast
Issued by NWS Mt. Holly, NJ

Home | Current Version | Previous Version | Text Only | Print | Product List | Glossary On
Versions: 1 2 3 4 5 6 7 8 9 10 11 12 13 14 15 16 17 18 19 20
000
FTUS41 KPHI 011500 AAB
TAFTTN
TAF AMD
KTTN 011504Z 0115/0212 23006KT P6SM SCT020 BKN050
     FM011800 23008KT P6SM VCSH BKN040
      TEMPO 0118/0122 5SM -SHRA
     FM020000 25004KT P6SM SCT040 BKN100
     FM020300 VRB02KT 6SM BR FEW050 SCT100=

USA.gov is the U.S. government's official web portal to all federal, state and local government web resources and services.